createdAt,value
2022-12-05T06:18:09.274Z,1.20
2022-12-05T06:20:39.085Z,1.21
2022-12-05T06:23:08.594Z,1.21
2022-12-05T06:25:38.151Z,1.19
2022-12-05T06:28:07.617Z,1.23
2022-12-05T06:30:39.552Z,1.23
2022-12-05T06:33:10.704Z,1.23
2022-12-05T06:35:40.507Z,1.25
2022-12-05T06:38:11.030Z,1.25
2022-12-05T06:40:43.101Z,1.26
2022-12-05T06:43:13.244Z,1.26
2022-12-05T06:45:42.941Z,1.29
2022-12-05T06:48:13.872Z,1.27
2022-12-05T06:50:51.716Z,1.28
2022-12-05T06:53:21.837Z,1.29
2022-12-05T06:55:59.710Z,1.28
2022-12-05T06:58:30.436Z,1.29
2022-12-05T07:01:17.447Z,1.29
2022-12-05T07:03:50.244Z,1.33
2022-12-05T07:06:19.859Z,1.32
2022-12-05T07:08:49.393Z,1.33
2022-12-05T07:11:19.210Z,1.35
2022-12-05T07:13:49.079Z,1.37
2022-12-05T07:16:19.021Z,1.38
2022-12-05T07:18:50.134Z,1.40
2022-12-05T07:21:21.709Z,1.38
2022-12-05T07:23:51.799Z,1.41
2022-12-05T07:26:24.968Z,1.40
2022-12-05T07:28:58.488Z,1.40
2022-12-05T07:31:29.810Z,1.43
2022-12-05T08:38:49.990Z,2.32
2022-12-05T08:41:19.816Z,2.34
2022-12-05T08:43:49.438Z,2.37
2022-12-05T08:46:19.011Z,2.40
2022-12-05T08:48:49.043Z,2.42
2022-12-05T08:51:18.764Z,2.45
2022-12-05T08:53:49.811Z,2.45
2022-12-05T08:56:25.105Z,2.45
2022-12-05T08:59:04.416Z,2.48
2022-12-05T09:01:38.556Z,2.47
2022-12-05T09:50:18.667Z,2.75
2022-12-05T09:53:04.849Z,2.75
2022-12-05T09:55:46.154Z,2.79
2022-12-05T09:58:31.626Z,2.80
2022-12-05T10:01:15.098Z,2.79
2022-12-05T10:03:54.770Z,2.78
2022-12-05T10:06:31.141Z,2.78
2022-12-05T10:09:20.448Z,2.80
2022-12-05T10:11:59.767Z,2.82
2022-12-05T10:14:41.943Z,2.83
2022-12-05T10:17:27.974Z,2.86
2022-12-05T10:20:02.579Z,2.86
2022-12-05T10:22:44.468Z,2.89
2022-12-05T10:25:19.831Z,2.92
2022-12-05T10:27:54.848Z,2.94
2022-12-05T10:30:27.932Z,2.98
2022-12-05T10:33:04.976Z,3.01
2022-12-05T10:35:42.078Z,3.07
2022-12-05T10:38:20.878Z,3.08
2022-12-05T10:40:55.321Z,3.10
2022-12-05T10:43:28.760Z,3.11
2022-12-05T10:45:59.191Z,3.15
2022-12-05T10:48:29.077Z,3.18
2022-12-05T10:50:59.904Z,3.22
2022-12-05T10:53:43.054Z,3.26
2022-12-05T10:56:43.750Z,3.31
2022-12-05T10:59:16.750Z,3.34
2022-12-05T11:01:52.918Z,3.35
2022-12-05T11:04:28.746Z,3.36
2022-12-05T11:07:04.357Z,3.44
2022-12-05T11:09:39.231Z,3.44
2022-12-05T11:12:20.802Z,3.43
2022-12-05T11:15:06.003Z,3.46
2022-12-05T11:17:39.864Z,3.47
2022-12-05T11:20:42.628Z,3.46
2022-12-05T11:23:28.181Z,3.48
2022-12-05T11:26:00.413Z,3.51
2022-12-05T11:28:37.876Z,3.56
2022-12-05T11:31:24.168Z,3.59
2022-12-05T11:34:14.734Z,3.61
2022-12-05T11:36:52.252Z,3.58
2022-12-05T11:39:21.904Z,3.59
2022-12-05T11:42:31.750Z,3.57
2022-12-05T11:45:41.183Z,3.56
2022-12-05T11:49:01.084Z,3.59
2022-12-05T11:51:41.671Z,3.60
2022-12-05T11:55:05.045Z,3.58
2022-12-05T11:58:14.162Z,3.64
2022-12-05T12:01:01.483Z,3.71
2022-12-05T12:04:14.667Z,3.74
2022-12-05T12:07:03.370Z,3.79
2022-12-05T12:09:48.062Z,3.84
2022-12-05T12:12:29.825Z,3.83
2022-12-05T12:15:21.167Z,3.83
2022-12-05T12:18:03.536Z,3.86
2022-12-05T12:20:56.546Z,3.88
2022-12-05T12:23:52.909Z,3.90
2022-12-05T12:26:40.790Z,3.93
2022-12-05T12:29:26.135Z,3.88
2022-12-05T12:32:17.618Z,3.96
2022-12-05T12:35:29.266Z,4.00
2022-12-05T12:38:35.200Z,4.01
2022-12-05T12:41:17.602Z,4.10
2022-12-05T12:44:04.050Z,4.14
2022-12-05T12:46:49.459Z,4.08
2022-12-05T12:49:45.939Z,4.05
2022-12-05T12:52:20.925Z,4.08
2022-12-05T12:55:10.004Z,4.01
2022-12-05T12:58:05.457Z,4.03
2022-12-05T13:00:54.336Z,4.00
2022-12-05T13:03:33.534Z,3.95
2022-12-05T13:06:14.313Z,3.87
2022-12-05T13:08:52.153Z,3.79
2022-12-05T13:11:23.273Z,3.87
2022-12-05T13:14:00.523Z,3.86
2022-12-05T13:16:39.900Z,3.80
2022-12-05T13:19:30.506Z,3.79
2022-12-05T13:22:02.142Z,3.80
2022-12-05T13:24:31.979Z,3.67
2022-12-05T13:27:07.083Z,3.60
2022-12-05T13:29:42.223Z,3.59
2022-12-05T13:32:33.655Z,3.52
2022-12-05T13:35:10.877Z,3.50
2022-12-05T13:38:07.188Z,3.47
2022-12-05T13:41:00.283Z,3.54
2022-12-05T13:43:30.923Z,3.52
2022-12-05T13:46:09.550Z,3.50
2022-12-05T13:48:45.320Z,3.36
2022-12-05T13:51:31.071Z,3.37
2022-12-05T13:54:13.445Z,3.37
2022-12-05T13:56:54.168Z,3.32
2022-12-05T14:00:05.012Z,3.25
2022-12-05T14:03:03.247Z,3.22
2022-12-05T14:05:50.769Z,3.20
2022-12-05T14:08:56.686Z,3.25
2022-12-05T14:11:27.903Z,3.25
2022-12-05T14:14:03.996Z,3.20
2022-12-05T14:16:45.934Z,3.20
2022-12-05T14:20:01.458Z,3.29
2022-12-05T14:23:21.616Z,3.27
2022-12-05T14:26:15.721Z,3.19
2022-12-05T14:29:06.196Z,3.19
2022-12-05T14:31:52.969Z,3.12
2022-12-05T14:34:28.548Z,3.09
2022-12-05T14:37:02.630Z,3.07
2022-12-05T14:39:42.803Z,3.08
2022-12-05T14:42:28.152Z,3.03
2022-12-05T14:45:03.456Z,3.03
2022-12-05T14:47:35.428Z,3.05
2022-12-05T14:50:37.669Z,2.98
2022-12-05T14:53:36.326Z,2.94
2022-12-05T14:56:18.891Z,2.91
2022-12-05T14:59:00.426Z,2.90
2022-12-05T15:01:41.565Z,2.88
2022-12-05T15:04:20.902Z,2.85
2022-12-05T15:06:57.234Z,2.82
2022-12-05T15:09:57.702Z,2.78
2022-12-05T15:12:34.507Z,2.78
2022-12-05T15:15:37.732Z,2.76
2022-12-05T15:18:22.397Z,2.72
2022-12-05T15:20:59.797Z,2.72
2022-12-05T15:23:45.822Z,2.76
2022-12-05T15:29:19.008Z,2.78
2022-12-05T15:31:51.942Z,2.73
2022-12-05T15:34:29.648Z,2.74
2022-12-05T15:37:07.349Z,2.69
2022-12-05T15:39:56.021Z,2.71
2022-12-05T15:42:30.169Z,2.69
2022-12-05T15:45:24.368Z,2.70
2022-12-05T15:47:58.012Z,2.71
2022-12-05T15:50:39.141Z,2.70
2022-12-05T15:53:16.792Z,2.72
2022-12-05T15:55:51.504Z,2.65
2022-12-05T15:58:28.122Z,2.68
2022-12-05T16:01:06.600Z,2.65
2022-12-05T16:03:44.978Z,2.61
2022-12-05T16:06:21.480Z,2.59
2022-12-05T16:08:52.624Z,2.61
2022-12-05T16:11:22.454Z,2.63
2022-12-05T16:13:57.330Z,2.65
2022-12-05T16:16:34.474Z,2.65
2022-12-05T16:19:14.463Z,2.67
2022-12-05T16:21:49.152Z,2.66
2022-12-05T16:24:22.481Z,2.64
2022-12-05T16:27:02.114Z,2.64
2022-12-05T16:29:34.480Z,2.68
2022-12-05T16:32:14.932Z,2.68
2022-12-05T16:34:45.491Z,2.64
2022-12-05T16:37:27.462Z,2.64
2022-12-05T16:39:58.368Z,2.66
2022-12-05T16:42:30.826Z,2.67
2022-12-05T16:45:05.262Z,2.67
2022-12-05T16:47:59.901Z,2.62
2022-12-05T16:50:35.995Z,2.63
2022-12-05T16:53:23.645Z,2.62
2022-12-05T16:55:53.383Z,2.58
2022-12-05T16:58:26.722Z,2.57
2022-12-05T17:01:02.507Z,2.62
2022-12-05T17:03:34.804Z,2.62
2022-12-05T17:06:05.463Z,2.63
2022-12-05T17:08:36.364Z,2.64
2022-12-05T17:11:06.884Z,2.74
2022-12-05T17:13:37.816Z,2.71
2022-12-05T17:16:08.237Z,2.77
2022-12-05T17:18:37.936Z,2.65
2022-12-05T17:21:07.965Z,2.63
2022-12-05T17:23:40.081Z,2.75
2022-12-05T17:26:17.509Z,2.70
2022-12-05T17:28:48.695Z,2.69
2022-12-05T17:31:21.565Z,2.64
2022-12-05T17:33:53.963Z,2.62
2022-12-05T17:36:23.712Z,2.60
2022-12-05T17:38:54.476Z,2.55
2022-12-05T17:41:25.310Z,2.57
2022-12-05T17:43:55.027Z,2.57
2022-12-05T17:46:25.321Z,2.65
2022-12-05T17:48:55.309Z,2.58
2022-12-05T17:51:25.252Z,2.48
2022-12-05T17:53:56.095Z,2.43
2022-12-05T17:56:25.599Z,2.43
2022-12-05T17:58:55.199Z,2.42
2022-12-05T18:01:24.776Z,2.46
2022-12-05T18:03:54.508Z,2.43
2022-12-05T18:06:26.113Z,2.41
2022-12-05T18:08:58.549Z,2.34
2022-12-05T18:11:27.974Z,2.30
2022-12-05T18:13:58.276Z,2.30
2022-12-05T18:16:27.753Z,2.24
2022-12-05T18:18:57.236Z,2.21
2022-12-05T18:21:26.733Z,2.19
2022-12-05T18:23:57.668Z,2.18
2022-12-05T18:26:27.291Z,2.13
2022-12-05T18:28:58.848Z,2.11
2022-12-05T18:31:29.275Z,2.08
2022-12-05T18:33:59.161Z,2.09
2022-12-05T18:36:29.003Z,2.08
2022-12-05T18:39:01.040Z,2.07
2022-12-05T18:41:30.647Z,2.07
2022-12-05T18:44:00.203Z,2.04
2022-12-05T18:46:30.896Z,2.03
2022-12-05T18:49:03.482Z,2.03
2022-12-05T18:51:33.321Z,2.02
2022-12-05T18:54:04.640Z,2.02
2022-12-05T18:56:36.856Z,2.01
2022-12-05T18:59:09.894Z,2.01
2022-12-05T19:01:41.842Z,1.99
2022-12-05T19:04:15.281Z,1.99
2022-12-05T19:06:51.579Z,1.99
2022-12-05T19:09:26.701Z,2.01
2022-12-05T19:11:59.480Z,1.97
2022-12-05T19:14:33.022Z,2.01
2022-12-05T19:17:04.934Z,1.98
2022-12-05T19:19:34.521Z,2.00
2022-12-05T19:22:03.947Z,1.98
2022-12-05T19:24:34.848Z,2.03
2022-12-05T19:27:04.334Z,2.04
2022-12-05T19:29:33.800Z,2.16
2022-12-05T19:32:03.353Z,2.11
2022-12-05T19:34:34.761Z,2.20
2022-12-05T19:37:04.422Z,2.18
2022-12-05T19:39:37.658Z,2.17
2022-12-05T19:42:07.325Z,2.20
2022-12-05T19:44:36.893Z,2.16
2022-12-05T19:47:06.601Z,2.09
2022-12-05T19:49:38.829Z,2.07
2022-12-05T19:52:08.455Z,2.13
2022-12-05T19:54:39.407Z,2.07
2022-12-05T19:57:09.014Z,2.09
2022-12-05T19:59:38.691Z,2.10
2022-12-05T20:02:08.304Z,2.04
2022-12-05T20:04:38.389Z,2.05
2022-12-05T20:07:08.006Z,2.00
2022-12-05T20:09:39.001Z,2.06
2022-12-05T20:12:08.829Z,2.03
2022-12-05T20:14:38.422Z,1.99
2022-12-05T20:17:07.923Z,1.96
2022-12-05T20:19:37.584Z,1.94
2022-12-05T20:22:07.101Z,1.94
2022-12-05T20:24:38.074Z,1.93
2022-12-05T20:27:07.681Z,1.90
2022-12-05T20:29:38.906Z,1.91
2022-12-05T20:32:09.063Z,1.91
2022-12-05T20:34:38.687Z,1.88
2022-12-05T20:37:08.336Z,1.88
2022-12-05T20:39:39.181Z,1.87
2022-12-05T20:42:08.821Z,1.85
2022-12-05T20:44:38.434Z,1.84
2022-12-05T20:47:07.976Z,1.81
2022-12-05T20:49:37.585Z,1.78
2022-12-05T20:52:07.802Z,1.83
2022-12-05T20:54:38.697Z,1.79
2022-12-05T20:57:08.497Z,1.75
2022-12-05T20:59:38.005Z,1.76
2022-12-05T21:02:07.656Z,1.74
2022-12-05T21:04:40.819Z,1.67
2022-12-05T21:07:10.341Z,1.66
2022-12-05T21:09:41.167Z,1.59
2022-12-05T21:12:10.827Z,1.71
2022-12-05T21:14:40.317Z,1.68
2022-12-05T21:17:09.750Z,1.72
2022-12-05T21:19:39.405Z,1.65
2022-12-05T21:22:09.057Z,1.61
2022-12-05T21:24:39.990Z,1.59
2022-12-05T21:27:09.542Z,1.53
2022-12-05T21:29:39.042Z,1.46
2022-12-05T21:32:09.647Z,1.43
2022-12-05T21:34:40.087Z,1.38
2022-12-05T21:37:09.644Z,1.34
2022-12-05T21:39:40.589Z,1.33
2022-12-05T21:42:10.269Z,1.41
2022-12-05T21:44:39.943Z,1.37
2022-12-05T21:47:09.551Z,1.37
2022-12-05T21:49:39.158Z,1.35
2022-12-05T21:52:08.737Z,1.35
2022-12-05T21:54:38.234Z,1.40
2022-12-05T21:57:09.088Z,1.41
2022-12-05T21:59:38.641Z,1.41
2022-12-05T22:02:08.627Z,1.38
2022-12-05T22:04:38.295Z,1.38
2022-12-05T22:07:07.781Z,1.35
2022-12-05T22:09:37.324Z,1.40
2022-12-05T22:12:09.389Z,1.40
2022-12-05T22:14:38.925Z,1.36
2022-12-05T22:17:08.450Z,1.36
2022-12-05T22:19:37.910Z,1.34
2022-12-05T22:22:07.381Z,1.34
2022-12-05T22:24:36.908Z,1.37
2022-12-05T22:27:09.070Z,1.30
2022-12-05T22:29:38.578Z,1.36
2022-12-05T22:32:08.313Z,1.34
2022-12-05T22:34:37.888Z,1.39
2022-12-05T22:37:07.627Z,1.33
2022-12-05T22:39:37.161Z,1.37
2022-12-05T22:42:08.210Z,1.42
2022-12-05T22:44:37.633Z,1.38
2022-12-05T22:47:07.175Z,1.40
2022-12-05T22:49:36.663Z,1.44
2022-12-05T22:52:06.591Z,1.42
2022-12-05T22:54:36.094Z,1.42
2022-12-05T22:57:05.545Z,1.40
2022-12-05T22:59:36.581Z,1.39
2022-12-05T23:02:06.292Z,1.33
2022-12-05T23:04:35.860Z,1.27
2022-12-05T23:07:05.321Z,1.27
2022-12-05T23:09:34.825Z,1.25
2022-12-05T23:12:04.604Z,1.23
2022-12-05T23:14:35.628Z,1.21
2022-12-05T23:17:05.364Z,1.21
2022-12-05T23:19:35.097Z,1.20
2022-12-05T23:22:04.668Z,1.20
2022-12-05T23:24:34.120Z,1.18
2022-12-05T23:27:03.596Z,1.19
2022-12-05T23:29:36.248Z,1.19
2022-12-05T23:32:09.472Z,1.19
2022-12-05T23:34:39.013Z,1.20
2022-12-05T23:37:08.669Z,1.22
2022-12-05T23:39:38.390Z,1.22
2022-12-05T23:42:13.648Z,1.21
2022-12-05T23:44:44.829Z,1.19
2022-12-05T23:47:16.038Z,1.19
2022-12-05T23:49:45.714Z,1.18
2022-12-05T23:52:15.152Z,1.16
2022-12-05T23:54:44.806Z,1.14
2022-12-05T23:57:17.557Z,1.12
2022-12-05T23:59:47.621Z,1.08
